Time,TemperatureF,DewpointF,PressureIn,WindDirection,WindDirectionDegrees,WindSpeedMPH,WindSpeedGustMPH,Humidity,HourlyPrecipIn,Conditions,Clouds,dailyrainin,SolarRadiationWatts/m^2,SoftwareType,DateUTC
2013-04-06 00:02:00,75.0,20.0,29.90,WNW,288,14.0,22.0,12,-99.99,,,-99.99,0.000000,,2013-04-06 06:02:00,
2013-04-06 00:12:00,75.0,20.0,29.91,WNW,289,15.0,24.0,12,-99.99,,,-99.99,0.000000,,2013-04-06 06:12:00,
2013-04-06 00:22:00,75.0,20.0,29.91,WNW,289,15.0,24.0,12,-99.99,,,-99.99,0.000000,,2013-04-06 06:22:00,
2013-04-06 00:32:00,74.0,20.0,29.91,WNW,295,14.0,20.0,12,-99.99,,,-99.99,0.000000,,2013-04-06 06:32:00,
2013-04-06 00:42:00,74.0,20.0,29.91,WNW,295,14.0,20.0,12,-99.99,,,-99.99,0.000000,,2013-04-06 06:42:00,
2013-04-06 00:53:00,74.0,20.0,29.91,WNW,295,14.0,20.0,12,-99.99,,,-99.99,0.000000,,2013-04-06 06:53:00,
2013-04-06 01:03:00,73.0,20.0,29.92,NW,304,13.0,21.0,13,-99.99,,,-99.99,0.000000,,2013-04-06 07:03:00,
2013-04-06 01:12:00,72.0,20.0,29.92,WNW,301,13.0,19.0,13,-99.99,,,-99.99,0.000000,,2013-04-06 07:12:00,
2013-04-06 01:22:00,72.0,20.0,29.92,WNW,301,13.0,19.0,13,-99.99,,,-99.99,0.000000,,2013-04-06 07:22:00,
2013-04-06 01:33:00,72.0,20.0,29.92,WNW,302,14.0,25.0,14,-99.99,,,-99.99,0.000000,,2013-04-06 07:33:00,
2013-04-06 01:43:00,72.0,21.0,29.93,WNW,301,14.0,22.0,14,-99.99,,,-99.99,0.000000,,2013-04-06 07:43:00,
2013-04-06 01:53:00,72.0,21.0,29.93,WNW,301,14.0,22.0,14,-99.99,,,-99.99,0.000000,,2013-04-06 07:53:00,
2013-04-06 02:02:00,71.0,21.0,29.93,WNW,300,15.0,20.0,14,-99.99,,,-99.99,0.000000,,2013-04-06 08:02:00,
2013-04-06 02:13:00,71.0,21.0,29.93,WNW,300,15.0,20.0,14,-99.99,,,-99.99,0.000000,,2013-04-06 08:13:00,
2013-04-06 02:22:00,71.0,21.0,29.93,WNW,300,15.0,20.0,14,-99.99,,,-99.99,0.000000,,2013-04-06 08:22:00,
2013-04-06 02:32:00,71.0,22.0,29.93,WNW,299,15.0,26.0,15,-99.99,,,-99.99,0.000000,,2013-04-06 08:32:00,
2013-04-06 02:42:00,71.0,22.0,29.93,WNW,299,15.0,26.0,15,-99.99,,,-99.99,0.000000,,2013-04-06 08:42:00,
2013-04-06 02:52:00,71.0,22.0,29.93,WNW,299,15.0,26.0,15,-99.99,,,-99.99,0.000000,,2013-04-06 08:52:00,
2013-04-06 03:02:00,70.0,22.0,29.93,WNW,298,14.0,18.0,16,-99.99,,,-99.99,0.000000,,2013-04-06 09:02:00,
2013-04-06 03:12:00,71.0,23.0,29.93,WNW,297,17.0,25.0,16,-99.99,,,-99.99,0.000000,,2013-04-06 09:12:00,
2013-04-06 03:22:00,71.0,23.0,29.93,WNW,297,17.0,25.0,16,-99.99,,,-99.99,0.000000,,2013-04-06 09:22:00,
2013-04-06 03:33:00,70.0,23.0,29.93,WNW,296,15.0,23.0,16,-99.99,,,-99.99,0.000000,,2013-04-06 09:33:00,
2013-04-06 03:43:00,70.0,23.0,29.93,WNW,293,15.0,20.0,17,-99.99,,,-99.99,0.000000,,2013-04-06 09:43:00,
2013-04-06 03:53:00,70.0,23.0,29.93,WNW,293,15.0,20.0,17,-99.99,,,-99.99,0.000000,,2013-04-06 09:53:00,
2013-04-06 04:03:00,69.0,24.0,29.93,WNW,288,15.0,21.0,18,-99.99,,,-99.99,0.000000,,2013-04-06 10:03:00,
2013-04-06 04:13:00,68.0,24.0,29.92,WNW,287,16.0,21.0,18,-99.99,,,-99.99,0.000000,,2013-04-06 10:13:00,
2013-04-06 04:23:00,68.0,24.0,29.92,WNW,287,16.0,21.0,18,-99.99,,,-99.99,0.000000,,2013-04-06 10:23:00,
2013-04-06 04:33:00,68.0,24.0,29.92,WNW,287,16.0,21.0,18,-99.99,,,-99.99,0.000000,,2013-04-06 10:33:00,
2013-04-06 04:42:00,67.0,24.0,29.92,WNW,285,16.0,23.0,19,-99.99,,,-99.99,0.000000,,2013-04-06 10:42:00,
2013-04-06 04:53:00,67.0,24.0,29.92,WNW,285,16.0,23.0,19,-99.99,,,-99.99,0.000000,,2013-04-06 10:53:00,
2013-04-06 05:02:00,67.0,24.0,29.92,WNW,285,16.0,23.0,19,-99.99,,,-99.99,0.000000,,2013-04-06 11:02:00,
2013-04-06 05:12:00,68.0,24.0,29.92,WNW,289,16.0,24.0,19,-99.99,,,-99.99,0.000000,,2013-04-06 11:12:00,
2013-04-06 05:23:00,68.0,24.0,29.92,WNW,289,16.0,24.0,19,-99.99,,,-99.99,0.000000,,2013-04-06 11:23:00,
2013-04-06 05:33:00,67.0,24.0,29.92,WNW,289,15.0,22.0,19,-99.99,,,-99.99,0.000000,,2013-04-06 11:33:00,
2013-04-06 05:43:00,66.0,24.0,29.92,WNW,285,14.0,21.0,20,-99.99,,,-99.99,0.000000,,2013-04-06 11:43:00,
2013-04-06 05:53:00,66.0,24.0,29.92,WNW,285,14.0,21.0,20,-99.99,,,-99.99,0.000000,,2013-04-06 11:53:00,
2013-04-06 06:02:00,67.0,25.0,29.91,West,281,17.0,25.0,19,-99.99,,,-99.99,0.000000,,2013-04-06 12:02:00,
2013-04-06 06:12:00,67.0,25.0,29.91,West,276,17.0,25.0,19,-99.99,,,-99.99,0.000000,,2013-04-06 12:12:00,
2013-04-06 06:22:00,67.0,25.0,29.91,West,276,17.0,25.0,19,-99.99,,,-99.99,0.000000,,2013-04-06 12:22:00,
2013-04-06 06:32:00,67.0,25.0,29.92,West,279,15.0,28.0,20,-99.99,,,-99.99,0.000000,,2013-04-06 12:32:00,
2013-04-06 06:43:00,67.0,25.0,29.92,WNW,283,14.0,22.0,20,-99.99,,,-99.99,0.000000,,2013-04-06 12:43:00,
2013-04-06 06:52:00,67.0,25.0,29.92,WNW,283,14.0,22.0,20,-99.99,,,-99.99,0.000000,,2013-04-06 12:52:00,
2013-04-06 07:03:00,66.0,25.0,29.93,WNW,287,13.0,18.0,20,-99.99,,,-99.99,0.000000,,2013-04-06 13:03:00,
2013-04-06 07:13:00,66.0,25.0,29.94,WNW,297,12.0,17.0,21,-99.99,,,-99.99,3.490000,,2013-04-06 13:13:00,
2013-04-06 07:23:00,66.0,25.0,29.94,WNW,297,12.0,17.0,21,-99.99,,,-99.99,3.490000,,2013-04-06 13:23:00,
2013-04-06 07:32:00,66.0,25.0,29.94,WNW,291,11.0,16.0,20,-99.99,,,-99.99,15.340000,,2013-04-06 13:32:00,
2013-04-06 07:43:00,66.0,25.0,29.95,WNW,285,6.0,14.0,20,-99.99,,,-99.99,54.389999,,2013-04-06 13:43:00,
2013-04-06 07:53:00,66.0,25.0,29.95,WNW,285,6.0,14.0,20,-99.99,,,-99.99,54.389999,,2013-04-06 13:53:00,
2013-04-06 08:04:00,64.0,24.0,29.96,SSE,164,4.0,7.0,21,-99.99,,,-99.99,152.020004,,2013-04-06 14:04:00,
2013-04-06 08:12:00,65.0,24.0,29.96,SE,133,5.0,8.0,21,-99.99,,,-99.99,180.610001,,2013-04-06 14:12:00,
2013-04-06 08:22:00,65.0,24.0,29.96,SE,133,5.0,8.0,21,-99.99,,,-99.99,180.610001,,2013-04-06 14:22:00,
2013-04-06 08:32:00,66.0,25.0,29.97,SE,135,5.0,8.0,20,-99.99,,,-99.99,274.750000,,2013-04-06 14:32:00,
2013-04-06 08:42:00,68.0,25.0,29.97,SSE,147,4.0,10.0,20,-99.99,,,-99.99,210.589996,,2013-04-06 14:42:00,
2013-04-06 08:53:00,68.0,25.0,29.97,SSE,147,4.0,10.0,20,-99.99,,,-99.99,210.589996,,2013-04-06 14:53:00,
2013-04-06 09:02:00,70.0,27.0,29.98,NW,308,7.0,23.0,19,-99.99,,,-99.99,383.529999,,2013-04-06 15:02:00,
2013-04-06 09:12:00,72.0,27.0,29.98,WNW,289,12.0,19.0,19,-99.99,,,-99.99,430.950012,,2013-04-06 15:12:00,
2013-04-06 09:23:00,72.0,27.0,29.98,WNW,289,12.0,19.0,19,-99.99,,,-99.99,430.950012,,2013-04-06 15:23:00,
2013-04-06 09:33:00,72.0,28.0,29.98,WNW,291,15.0,25.0,19,-99.99,,,-99.99,352.850006,,2013-04-06 15:33:00,
2013-04-06 09:43:00,71.0,28.0,29.99,WNW,297,13.0,22.0,20,-99.99,,,-99.99,236.399994,,2013-04-06 15:43:00,
2013-04-06 09:53:00,71.0,28.0,29.99,WNW,297,13.0,22.0,20,-99.99,,,-99.99,236.399994,,2013-04-06 15:53:00,
2013-04-06 10:05:00,70.0,28.0,29.99,NW,305,13.0,20.0,20,-99.99,,,-99.99,234.300003,,2013-04-06 16:05:00,
2013-04-06 10:17:00,70.0,28.0,30.00,NW,313,10.0,16.0,20,-99.99,,,-99.99,264.989990,,2013-04-06 16:17:00,
2013-04-06 10:23:00,70.0,28.0,30.00,NW,313,10.0,16.0,20,-99.99,,,-99.99,264.989990,,2013-04-06 16:23:00,
2013-04-06 10:32:00,71.0,28.0,30.00,NW,317,12.0,18.0,20,-99.99,,,-99.99,366.799988,,2013-04-06 16:32:00,
2013-04-06 10:42:00,71.0,28.0,30.00,NW,309,14.0,23.0,20,-99.99,,,-99.99,384.230011,,2013-04-06 16:42:00,
2013-04-06 10:53:00,71.0,28.0,30.00,NW,309,14.0,23.0,20,-99.99,,,-99.99,384.230011,,2013-04-06 16:53:00,
2013-04-06 11:02:00,72.0,28.0,30.00,WNW,297,13.0,20.0,19,-99.99,,,-99.99,381.440002,,2013-04-06 17:02:00,
2013-04-06 11:12:00,72.0,28.0,30.00,WNW,297,12.0,21.0,19,-99.99,,,-99.99,597.609985,,2013-04-06 17:12:00,
2013-04-06 11:22:00,72.0,28.0,30.00,WNW,297,12.0,21.0,19,-99.99,,,-99.99,597.609985,,2013-04-06 17:22:00,
2013-04-06 11:32:00,71.0,28.0,30.00,NW,307,13.0,18.0,19,-99.99,,,-99.99,314.500000,,2013-04-06 17:32:00,
2013-04-06 11:42:00,72.0,28.0,30.00,NW,311,14.0,23.0,19,-99.99,,,-99.99,645.030029,,2013-04-06 17:42:00,
2013-04-06 11:52:00,72.0,28.0,30.00,NW,311,14.0,23.0,19,-99.99,,,-99.99,645.030029,,2013-04-06 17:52:00,
2013-04-06 12:03:00,72.0,28.0,30.00,NW,311,14.0,23.0,19,-99.99,,,-99.99,645.030029,,2013-04-06 18:03:00,
2013-04-06 12:12:00,72.0,27.0,30.01,WNW,297,14.0,20.0,19,-99.99,,,-99.99,267.079987,,2013-04-06 18:12:00,
2013-04-06 12:23:00,72.0,27.0,30.01,WNW,297,14.0,20.0,19,-99.99,,,-99.99,267.079987,,2013-04-06 18:23:00,
2013-04-06 12:32:00,72.0,26.0,30.00,WNW,295,14.0,21.0,17,-99.99,,,-99.99,428.859985,,2013-04-06 18:32:00,
2013-04-06 12:42:00,72.0,25.0,30.00,WNW,283,11.0,18.0,17,-99.99,,,-99.99,400.970001,,2013-04-06 18:42:00,
2013-04-06 12:52:00,72.0,25.0,30.00,WNW,283,11.0,18.0,17,-99.99,,,-99.99,400.970001,,2013-04-06 18:52:00,
2013-04-06 13:02:00,73.0,26.0,30.00,WNW,286,10.0,17.0,17,-99.99,,,-99.99,711.979980,,2013-04-06 19:02:00,
2013-04-06 13:12:00,73.0,26.0,30.00,WNW,286,10.0,17.0,17,-99.99,,,-99.99,711.979980,,2013-04-06 19:12:00,
2013-04-06 13:23:00,73.0,26.0,30.00,WNW,286,10.0,17.0,17,-99.99,,,-99.99,711.979980,,2013-04-06 19:23:00,
2013-04-06 13:32:00,74.0,25.0,29.99,WSW,253,5.0,13.0,16,-99.99,,,-99.99,997.880005,,2013-04-06 19:32:00,
2013-04-06 13:42:00,75.0,24.0,29.97,South,177,7.0,16.0,15,-99.99,,,-99.99,963.710022,,2013-04-06 19:42:00,
2013-04-06 13:54:00,75.0,24.0,29.97,South,177,7.0,16.0,15,-99.99,,,-99.99,963.710022,,2013-04-06 19:54:00,
2013-04-06 14:03:00,75.0,24.0,29.97,South,177,7.0,16.0,15,-99.99,,,-99.99,963.710022,,2013-04-06 20:03:00,
2013-04-06 14:12:00,77.0,23.0,29.96,NW,313,10.0,17.0,13,-99.99,,,-99.99,910.719971,,2013-04-06 20:12:00,
2013-04-06 14:22:00,77.0,23.0,29.96,NW,313,10.0,17.0,13,-99.99,,,-99.99,910.719971,,2013-04-06 20:22:00,
2013-04-06 14:30:00,79.0,24.0,29.94,West,280,9.0,18.0,13,-99.99,,,-99.99,881.429993,,2013-04-06 20:30:00,
2013-04-06 14:32:00,77.0,24.0,29.95,WSW,244,10.0,17.0,13,-99.99,,,-99.99,928.849976,,2013-04-06 20:32:00,
2013-04-06 14:42:00,78.0,24.0,29.94,West,278,13.0,23.0,13,-99.99,,,-99.99,906.530029,,2013-04-06 20:42:00,
2013-04-06 14:53:00,78.0,24.0,29.94,West,278,13.0,23.0,13,-99.99,,,-99.99,906.530029,,2013-04-06 20:53:00,
2013-04-06 15:02:00,79.0,24.0,29.94,West,280,9.0,18.0,13,-99.99,,,-99.99,881.429993,,2013-04-06 21:02:00,
2013-04-06 15:13:00,79.0,24.0,29.94,West,280,9.0,18.0,13,-99.99,,,-99.99,881.429993,,2013-04-06 21:13:00,
2013-04-06 15:22:00,79.0,24.0,29.94,West,280,9.0,18.0,13,-99.99,,,-99.99,881.429993,,2013-04-06 21:22:00,
2013-04-06 16:00:00,80.0,21.0,29.88,SW,232,13.0,22.0,11,-99.99,,,-99.99,677.809998,,2013-04-06 22:00:00,
2013-04-06 16:30:00,81.0,20.0,29.87,WSW,239,17.0,29.0,10,-99.99,,,-99.99,599.710022,,2013-04-06 22:30:00,
2013-04-06 16:43:00,80.0,21.0,29.88,SW,232,13.0,22.0,11,-99.99,,,-99.99,677.809998,,2013-04-06 22:43:00,
2013-04-06 16:54:00,80.0,21.0,29.88,SW,232,13.0,22.0,11,-99.99,,,-99.99,677.809998,,2013-04-06 22:54:00,
2013-04-06 17:13:00,81.0,20.0,29.87,WSW,239,17.0,29.0,10,-99.99,,,-99.99,599.710022,,2013-04-06 23:13:00,
2013-04-06 17:23:00,81.0,20.0,29.87,WSW,239,17.0,29.0,10,-99.99,,,-99.99,599.710022,,2013-04-06 23:23:00,
2013-04-06 17:42:00,80.0,18.0,29.85,WSW,241,13.0,22.0,9,-99.99,,,-99.99,450.480011,,2013-04-06 23:42:00,
2013-04-06 17:53:00,80.0,18.0,29.85,WSW,241,13.0,22.0,9,-99.99,,,-99.99,450.480011,,2013-04-06 23:53:00,
2013-04-06 18:02:00,81.0,18.0,29.85,WSW,237,14.0,22.0,9,-99.99,,,-99.99,398.869995,,2013-04-07 00:02:00,
2013-04-06 18:13:00,81.0,18.0,29.85,WSW,240,12.0,28.0,9,-99.99,,,-99.99,342.390015,,2013-04-07 00:13:00,
2013-04-06 18:22:00,81.0,18.0,29.85,WSW,240,12.0,28.0,9,-99.99,,,-99.99,342.390015,,2013-04-07 00:22:00,
2013-04-06 18:30:00,80.0,18.0,29.85,West,260,11.0,24.0,9,-99.99,,,-99.99,185.490005,,2013-04-07 00:30:00,
2013-04-06 18:32:00,81.0,18.0,29.85,WSW,240,12.0,28.0,9,-99.99,,,-99.99,342.390015,,2013-04-07 00:32:00,
2013-04-06 18:43:00,81.0,18.0,29.85,WSW,240,12.0,28.0,9,-99.99,,,-99.99,342.390015,,2013-04-07 00:43:00,
2013-04-06 19:12:00,80.0,18.0,29.85,West,260,11.0,24.0,9,-99.99,,,-99.99,185.490005,,2013-04-07 01:12:00,
2013-04-06 19:23:00,80.0,18.0,29.85,West,260,11.0,24.0,9,-99.99,,,-99.99,185.490005,,2013-04-07 01:23:00,
2013-04-06 20:03:00,76.0,19.0,29.85,WSW,253,8.0,18.0,11,-99.99,,,-99.99,7.670000,,2013-04-07 02:03:00,
2013-04-06 20:12:00,76.0,19.0,29.85,WSW,253,8.0,18.0,11,-99.99,,,-99.99,7.670000,,2013-04-07 02:12:00,
2013-04-06 20:23:00,76.0,19.0,29.85,WSW,253,8.0,18.0,11,-99.99,,,-99.99,7.670000,,2013-04-07 02:23:00,
2013-04-06 20:32:00,75.0,19.0,29.86,WSW,257,7.0,13.0,12,-99.99,,,-99.99,0.000000,,2013-04-07 02:32:00,
2013-04-06 20:43:00,75.0,19.0,29.86,WSW,257,7.0,13.0,12,-99.99,,,-99.99,0.000000,,2013-04-07 02:43:00,
2013-04-06 20:52:00,75.0,19.0,29.86,WSW,257,7.0,13.0,12,-99.99,,,-99.99,0.000000,,2013-04-07 02:52:00,
2013-04-06 21:02:00,73.0,19.0,29.86,West,269,6.0,9.0,12,-99.99,,,-99.99,0.000000,,2013-04-07 03:02:00,
2013-04-06 21:12:00,73.0,19.0,29.86,West,269,6.0,9.0,12,-99.99,,,-99.99,0.000000,,2013-04-07 03:12:00,
2013-04-06 21:22:00,73.0,19.0,29.86,West,269,6.0,9.0,12,-99.99,,,-99.99,0.000000,,2013-04-07 03:22:00,
2013-04-06 21:34:00,72.0,19.0,29.87,West,278,7.0,11.0,13,-99.99,,,-99.99,0.000000,,2013-04-07 03:34:00,
2013-04-06 21:43:00,73.0,20.0,29.87,West,278,8.0,14.0,13,-99.99,,,-99.99,0.000000,,2013-04-07 03:43:00,
2013-04-06 21:54:00,73.0,20.0,29.87,West,278,8.0,14.0,13,-99.99,,,-99.99,0.000000,,2013-04-07 03:54:00,
2013-04-06 22:03:00,73.0,20.0,29.87,West,278,8.0,14.0,13,-99.99,,,-99.99,0.000000,,2013-04-07 04:03:00,
2013-04-06 22:14:00,73.0,20.0,29.87,West,278,8.0,14.0,13,-99.99,,,-99.99,0.000000,,2013-04-07 04:14:00,
2013-04-06 23:12:00,72.0,19.0,29.87,WNW,290,9.0,19.0,13,-99.99,,,-99.99,0.000000,,2013-04-07 05:12:00,
2013-04-06 23:23:00,72.0,19.0,29.87,WNW,290,9.0,19.0,13,-99.99,,,-99.99,0.000000,,2013-04-07 05:23:00,
2013-04-06 23:33:00,72.0,19.0,29.87,WNW,290,9.0,19.0,13,-99.99,,,-99.99,0.000000,,2013-04-07 05:33:00,
2013-04-06 23:42:00,72.0,19.0,29.88,WNW,288,6.0,13.0,13,-99.99,,,-99.99,0.000000,,2013-04-07 05:42:00,
2013-04-06 23:52:00,72.0,19.0,29.88,WNW,288,6.0,13.0,13,-99.99,,,-99.99,0.000000,,2013-04-07 05:52:00,